sensor_id;sensor_type;location;lat;lon;timestamp;P1;durP1;ratioP1;P2;durP2;ratioP2
40815;SDS011;26535;48.788;9.214;2023-05-29T00:00:06;9.82;;;4.93;;
40815;SDS011;26535;48.788;9.214;2023-05-29T05:01:29;11.60;;;4.63;;
40815;SDS011;26535;48.788;9.214;2023-05-29T05:03:59;11.43;;;4.50;;
40815;SDS011;26535;48.788;9.214;2023-05-29T05:06:25;9.55;;;4.75;;
40815;SDS011;26535;48.788;9.214;2023-05-29T05:08:51;9.63;;;4.68;;
40815;SDS011;26535;48.788;9.214;2023-05-29T05:11:18;7.38;;;4.05;;
40815;SDS011;26535;48.788;9.214;2023-05-29T05:13:46;12.48;;;5.28;;
40815;SDS011;26535;48.788;9.214;2023-05-29T05:16:12;11.98;;;5.68;;
40815;SDS011;26535;48.788;9.214;2023-05-29T05:18:38;9.45;;;4.60;;
40815;SDS011;26535;48.788;9.214;2023-05-29T05:21:06;8.68;;;4.60;;
40815;SDS011;26535;48.788;9.214;2023-05-29T05:23:34;9.85;;;4.50;;
40815;SDS011;26535;48.788;9.214;2023-05-29T05:26:00;10.55;;;5.00;;
40815;SDS011;26535;48.788;9.214;2023-05-29T05:28:26;7.95;;;4.15;;
40815;SDS011;26535;48.788;9.214;2023-05-29T05:30:52;8.45;;;4.47;;
40815;SDS011;26535;48.788;9.214;2023-05-29T05:33:18;9.13;;;4.70;;
40815;SDS011;26535;48.788;9.214;2023-05-29T05:35:43;8.48;;;4.43;;
40815;SDS011;26535;48.788;9.214;2023-05-29T05:38:10;9.68;;;4.32;;
40815;SDS011;26535;48.788;9.214;2023-05-29T05:40:36;8.38;;;4.63;;
40815;SDS011;26535;48.788;9.214;2023-05-29T05:43:11;9.80;;;4.60;;
40815;SDS011;26535;48.788;9.214;2023-05-29T05:46:03;8.85;;;4.70;;
40815;SDS011;26535;48.788;9.214;2023-05-29T05:48:29;8.73;;;4.05;;
40815;SDS011;26535;48.788;9.214;2023-05-29T05:50:55;10.23;;;4.60;;
40815;SDS011;26535;48.788;9.214;2023-05-29T05:53:21;7.30;;;4.25;;
40815;SDS011;26535;48.788;9.214;2023-05-29T05:55:47;7.35;;;4.10;;
40815;SDS011;26535;48.788;9.214;2023-05-29T05:58:13;11.02;;;3.92;;
40815;SDS011;26535;48.788;9.214;2023-05-29T06:00:40;6.32;;;3.47;;
40815;SDS011;26535;48.788;9.214;2023-05-29T06:03:07;8.65;;;4.38;;
40815;SDS011;26535;48.788;9.214;2023-05-29T06:05:48;7.68;;;4.63;;
40815;SDS011;26535;48.788;9.214;2023-05-29T06:08:14;9.57;;;4.88;;
40815;SDS011;26535;48.788;9.214;2023-05-29T06:10:40;8.63;;;4.78;;
40815;SDS011;26535;48.788;9.214;2023-05-29T06:13:06;8.02;;;4.57;;
40815;SDS011;26535;48.788;9.214;2023-05-29T06:15:42;8.63;;;4.45;;
40815;SDS011;26535;48.788;9.214;2023-05-29T06:18:08;8.18;;;4.05;;
40815;SDS011;26535;48.788;9.214;2023-05-29T06:20:34;7.55;;;4.15;;
40815;SDS011;26535;48.788;9.214;2023-05-29T06:23:01;7.97;;;4.00;;
40815;SDS011;26535;48.788;9.214;2023-05-29T06:25:27;8.25;;;4.22;;
40815;SDS011;26535;48.788;9.214;2023-05-29T06:28:01;7.35;;;4.07;;
40815;SDS011;26535;48.788;9.214;2023-05-29T06:30:28;10.43;;;4.35;;
40815;SDS011;26535;48.788;9.214;2023-05-29T06:32:54;9.48;;;4.15;;
40815;SDS011;26535;48.788;9.214;2023-05-29T06:35:26;9.68;;;4.55;;
40815;SDS011;26535;48.788;9.214;2023-05-29T06:37:52;7.20;;;4.10;;
40815;SDS011;26535;48.788;9.214;2023-05-29T06:40:19;7.00;;;3.85;;
40815;SDS011;26535;48.788;9.214;2023-05-29T06:42:45;6.32;;;3.70;;
40815;SDS011;26535;48.788;9.214;2023-05-29T06:47:40;7.35;;;3.75;;
40815;SDS011;26535;48.788;9.214;2023-05-29T06:50:10;10.55;;;3.95;;
40815;SDS011;26535;48.788;9.214;2023-05-29T06:52:36;6.53;;;3.72;;
40815;SDS011;26535;48.788;9.214;2023-05-29T06:55:21;8.23;;;3.65;;
40815;SDS011;26535;48.788;9.214;2023-05-29T06:57:47;6.75;;;3.67;;
40815;SDS011;26535;48.788;9.214;2023-05-29T07:00:13;10.18;;;4.07;;
40815;SDS011;26535;48.788;9.214;2023-05-29T07:02:46;9.15;;;4.10;;
40815;SDS011;26535;48.788;9.214;2023-05-29T07:05:12;7.03;;;4.10;;
40815;SDS011;26535;48.788;9.214;2023-05-29T07:07:38;7.32;;;3.85;;
40815;SDS011;26535;48.788;9.214;2023-05-29T07:10:04;8.23;;;4.28;;
40815;SDS011;26535;48.788;9.214;2023-05-29T07:12:31;8.02;;;4.20;;
40815;SDS011;26535;48.788;9.214;2023-05-29T07:14:56;6.75;;;3.70;;
40815;SDS011;26535;48.788;9.214;2023-05-29T07:17:23;9.30;;;4.38;;
40815;SDS011;26535;48.788;9.214;2023-05-29T07:20:00;8.73;;;3.75;;
40815;SDS011;26535;48.788;9.214;2023-05-29T07:22:26;6.43;;;3.63;;
40815;SDS011;26535;48.788;9.214;2023-05-29T07:24:51;8.10;;;3.38;;
40815;SDS011;26535;48.788;9.214;2023-05-29T07:27:17;8.02;;;3.63;;
40815;SDS011;26535;48.788;9.214;2023-05-29T07:29:43;6.63;;;3.33;;
40815;SDS011;26535;48.788;9.214;2023-05-29T07:32:09;7.53;;;3.88;;
40815;SDS011;26535;48.788;9.214;2023-05-29T07:34:35;8.30;;;3.70;;
40815;SDS011;26535;48.788;9.214;2023-05-29T07:37:05;5.63;;;2.85;;
40815;SDS011;26535;48.788;9.214;2023-05-29T07:39:34;7.63;;;3.75;;
40815;SDS011;26535;48.788;9.214;2023-05-29T07:42:05;6.65;;;3.50;;
40815;SDS011;26535;48.788;9.214;2023-05-29T07:44:32;6.13;;;3.55;;
40815;SDS011;26535;48.788;9.214;2023-05-29T07:46:58;7.65;;;3.50;;
40815;SDS011;26535;48.788;9.214;2023-05-29T07:49:45;10.02;;;4.28;;
40815;SDS011;26535;48.788;9.214;2023-05-29T07:52:11;6.95;;;3.38;;
40815;SDS011;26535;48.788;9.214;2023-05-29T07:54:36;6.70;;;3.63;;
40815;SDS011;26535;48.788;9.214;2023-05-29T07:57:03;7.57;;;3.50;;
40815;SDS011;26535;48.788;9.214;2023-05-29T07:59:37;7.65;;;3.15;;
40815;SDS011;26535;48.788;9.214;2023-05-29T08:02:03;8.38;;;3.53;;
40815;SDS011;26535;48.788;9.214;2023-05-29T08:04:48;8.88;;;3.42;;
40815;SDS011;26535;48.788;9.214;2023-05-29T08:07:14;6.03;;;3.72;;
40815;SDS011;26535;48.788;9.214;2023-05-29T08:09:40;5.22;;;3.20;;
40815;SDS011;26535;48.788;9.214;2023-05-29T08:12:06;7.40;;;3.22;;
40815;SDS011;26535;48.788;9.214;2023-05-29T08:14:32;6.57;;;3.63;;
40815;SDS011;26535;48.788;9.214;2023-05-29T08:17:00;6.00;;;3.30;;
40815;SDS011;26535;48.788;9.214;2023-05-29T08:19:26;8.95;;;3.60;;
40815;SDS011;26535;48.788;9.214;2023-05-29T08:21:52;7.53;;;3.88;;
40815;SDS011;26535;48.788;9.214;2023-05-29T08:24:17;6.82;;;3.83;;
40815;SDS011;26535;48.788;9.214;2023-05-29T08:26:43;7.75;;;3.80;;
40815;SDS011;26535;48.788;9.214;2023-05-29T08:29:09;6.20;;;3.42;;
40815;SDS011;26535;48.788;9.214;2023-05-29T08:31:36;7.75;;;3.80;;
40815;SDS011;26535;48.788;9.214;2023-05-29T08:34:02;6.45;;;2.88;;
40815;SDS011;26535;48.788;9.214;2023-05-29T08:36:28;8.30;;;3.47;;
40815;SDS011;26535;48.788;9.214;2023-05-29T08:38:53;9.13;;;3.53;;
40815;SDS011;26535;48.788;9.214;2023-05-29T08:41:32;6.88;;;3.47;;
40815;SDS011;26535;48.788;9.214;2023-05-29T08:44:04;8.35;;;3.50;;
40815;SDS011;26535;48.788;9.214;2023-05-29T08:46:33;8.40;;;3.70;;
40815;SDS011;26535;48.788;9.214;2023-05-29T08:49:00;6.88;;;3.47;;
40815;SDS011;26535;48.788;9.214;2023-05-29T08:51:27;8.57;;;3.40;;
40815;SDS011;26535;48.788;9.214;2023-05-29T08:53:57;8.48;;;4.15;;
40815;SDS011;26535;48.788;9.214;2023-05-29T08:56:23;6.68;;;3.25;;
40815;SDS011;26535;48.788;9.214;2023-05-29T08:58:49;7.90;;;3.90;;
40815;SDS011;26535;48.788;9.214;2023-05-29T09:01:16;8.00;;;3.65;;
40815;SDS011;26535;48.788;9.214;2023-05-29T09:03:42;7.45;;;4.03;;
40815;SDS011;26535;48.788;9.214;2023-05-29T09:06:08;7.25;;;3.60;;
40815;SDS011;26535;48.788;9.214;2023-05-29T09:08:35;7.57;;;4.07;;
40815;SDS011;26535;48.788;9.214;2023-05-29T09:11:02;6.53;;;3.70;;
40815;SDS011;26535;48.788;9.214;2023-05-29T09:13:28;5.28;;;3.50;;
40815;SDS011;26535;48.788;9.214;2023-05-29T09:15:59;7.47;;;3.58;;
40815;SDS011;26535;48.788;9.214;2023-05-29T09:18:31;5.68;;;3.25;;
40815;SDS011;26535;48.788;9.214;2023-05-29T09:20:57;8.30;;;3.53;;
40815;SDS011;26535;48.788;9.214;2023-05-29T09:23:25;6.07;;;3.25;;
40815;SDS011;26535;48.788;9.214;2023-05-29T09:25:51;6.32;;;3.20;;
40815;SDS011;26535;48.788;9.214;2023-05-29T09:28:18;6.27;;;3.47;;
40815;SDS011;26535;48.788;9.214;2023-05-29T09:30:53;7.55;;;3.55;;
40815;SDS011;26535;48.788;9.214;2023-05-29T09:33:19;7.60;;;3.38;;
40815;SDS011;26535;48.788;9.214;2023-05-29T09:35:48;6.53;;;3.40;;
40815;SDS011;26535;48.788;9.214;2023-05-29T09:38:18;7.38;;;3.35;;
40815;SDS011;26535;48.788;9.214;2023-05-29T09:40:45;8.07;;;3.75;;
40815;SDS011;26535;48.788;9.214;2023-05-29T09:45:39;5.53;;;3.05;;
40815;SDS011;26535;48.788;9.214;2023-05-29T09:48:15;8.45;;;3.85;;
40815;SDS011;26535;48.788;9.214;2023-05-29T09:50:47;9.63;;;3.60;;
40815;SDS011;26535;48.788;9.214;2023-05-29T09:53:20;8.90;;;3.83;;
40815;SDS011;26535;48.788;9.214;2023-05-29T09:55:49;8.23;;;3.67;;
40815;SDS011;26535;48.788;9.214;2023-05-29T09:58:18;6.13;;;3.50;;
40815;SDS011;26535;48.788;9.214;2023-05-29T10:00:45;6.40;;;3.35;;
40815;SDS011;26535;48.788;9.214;2023-05-29T10:03:12;5.70;;;3.20;;
40815;SDS011;26535;48.788;9.214;2023-05-29T10:05:39;5.85;;;2.95;;
40815;SDS011;26535;48.788;9.214;2023-05-29T10:08:10;7.80;;;3.25;;
40815;SDS011;26535;48.788;9.214;2023-05-29T10:10:39;6.53;;;3.22;;
40815;SDS011;26535;48.788;9.214;2023-05-29T10:13:10;5.82;;;3.00;;
40815;SDS011;26535;48.788;9.214;2023-05-29T10:15:37;7.50;;;3.10;;
40815;SDS011;26535;48.788;9.214;2023-05-29T10:18:06;7.03;;;3.50;;
40815;SDS011;26535;48.788;9.214;2023-05-29T10:20:38;5.85;;;3.20;;
40815;SDS011;26535;48.788;9.214;2023-05-29T10:23:06;5.55;;;2.90;;
40815;SDS011;26535;48.788;9.214;2023-05-29T10:25:34;5.85;;;2.70;;
40815;SDS011;26535;48.788;9.214;2023-05-29T10:28:01;11.48;;;3.63;;
40815;SDS011;26535;48.788;9.214;2023-05-29T10:33:38;7.60;;;3.10;;
40815;SDS011;26535;48.788;9.214;2023-05-29T10:36:16;7.13;;;2.95;;
40815;SDS011;26535;48.788;9.214;2023-05-29T10:38:47;6.22;;;2.55;;
40815;SDS011;26535;48.788;9.214;2023-05-29T10:43:55;7.28;;;3.40;;
40815;SDS011;26535;48.788;9.214;2023-05-29T10:49:16;7.05;;;3.22;;
40815;SDS011;26535;48.788;9.214;2023-05-29T10:51:45;5.60;;;3.20;;
40815;SDS011;26535;48.788;9.214;2023-05-29T10:54:12;5.18;;;3.08;;
40815;SDS011;26535;48.788;9.214;2023-05-29T10:56:41;6.00;;;3.03;;
40815;SDS011;26535;48.788;9.214;2023-05-29T11:01:38;5.68;;;2.90;;
40815;SDS011;26535;48.788;9.214;2023-05-29T11:04:24;7.20;;;2.80;;
40815;SDS011;26535;48.788;9.214;2023-05-29T11:06:51;6.03;;;2.90;;
40815;SDS011;26535;48.788;9.214;2023-05-29T11:15:07;5.20;;;2.72;;
40815;SDS011;26535;48.788;9.214;2023-05-29T11:20:05;5.05;;;2.40;;
40815;SDS011;26535;48.788;9.214;2023-05-29T11:25:07;5.72;;;2.88;;
40815;SDS011;26535;48.788;9.214;2023-05-29T11:27:33;7.40;;;2.42;;
40815;SDS011;26535;48.788;9.214;2023-05-29T11:29:59;5.80;;;2.80;;
40815;SDS011;26535;48.788;9.214;2023-05-29T11:32:25;6.25;;;2.45;;
40815;SDS011;26535;48.788;9.214;2023-05-29T11:34:54;4.88;;;2.83;;
40815;SDS011;26535;48.788;9.214;2023-05-29T11:37:24;4.78;;;2.50;;
40815;SDS011;26535;48.788;9.214;2023-05-29T11:39:50;4.85;;;2.63;;
40815;SDS011;26535;48.788;9.214;2023-05-29T11:42:16;6.38;;;3.00;;
40815;SDS011;26535;48.788;9.214;2023-05-29T11:44:42;6.75;;;2.47;;
40815;SDS011;26535;48.788;9.214;2023-05-29T11:47:08;6.05;;;2.45;;
40815;SDS011;26535;48.788;9.214;2023-05-29T11:49:36;6.47;;;2.80;;
40815;SDS011;26535;48.788;9.214;2023-05-29T11:54:33;6.07;;;2.65;;
40815;SDS011;26535;48.788;9.214;2023-05-29T11:56:59;4.07;;;2.17;;
40815;SDS011;26535;48.788;9.214;2023-05-29T11:59:30;5.40;;;2.70;;
40815;SDS011;26535;48.788;9.214;2023-05-29T12:01:56;5.95;;;2.85;;
40815;SDS011;26535;48.788;9.214;2023-05-29T12:04:22;6.93;;;2.20;;
40815;SDS011;26535;48.788;9.214;2023-05-29T12:06:47;4.53;;;2.35;;
40815;SDS011;26535;48.788;9.214;2023-05-29T12:09:23;6.47;;;2.53;;
40815;SDS011;26535;48.788;9.214;2023-05-29T12:11:53;7.18;;;2.42;;
40815;SDS011;26535;48.788;9.214;2023-05-29T12:14:19;4.75;;;2.47;;
40815;SDS011;26535;48.788;9.214;2023-05-29T12:16:45;3.95;;;2.20;;
40815;SDS011;26535;48.788;9.214;2023-05-29T12:19:11;3.75;;;2.30;;
40815;SDS011;26535;48.788;9.214;2023-05-29T12:21:40;7.35;;;2.80;;
40815;SDS011;26535;48.788;9.214;2023-05-29T12:24:08;6.47;;;2.30;;
40815;SDS011;26535;48.788;9.214;2023-05-29T12:26:33;3.30;;;2.17;;
40815;SDS011;26535;48.788;9.214;2023-05-29T12:29:02;4.75;;;2.17;;
40815;SDS011;26535;48.788;9.214;2023-05-29T12:31:29;4.20;;;2.30;;
40815;SDS011;26535;48.788;9.214;2023-05-29T12:34:07;4.70;;;2.10;;
40815;SDS011;26535;48.788;9.214;2023-05-29T12:36:34;6.43;;;2.03;;
40815;SDS011;26535;48.788;9.214;2023-05-29T12:39:00;3.22;;;1.98;;
40815;SDS011;26535;48.788;9.214;2023-05-29T12:41:33;4.85;;;2.20;;
40815;SDS011;26535;48.788;9.214;2023-05-29T12:44:01;4.15;;;2.33;;
40815;SDS011;26535;48.788;9.214;2023-05-29T12:46:34;3.00;;;2.17;;
40815;SDS011;26535;48.788;9.214;2023-05-29T12:49:11;3.83;;;2.47;;
40815;SDS011;26535;48.788;9.214;2023-05-29T12:51:40;4.13;;;2.58;;
40815;SDS011;26535;48.788;9.214;2023-05-29T12:54:07;3.40;;;2.08;;
40815;SDS011;26535;48.788;9.214;2023-05-29T12:56:32;4.22;;;2.20;;
40815;SDS011;26535;48.788;9.214;2023-05-29T12:58:58;4.57;;;2.17;;
40815;SDS011;26535;48.788;9.214;2023-05-29T13:01:24;5.45;;;1.95;;
40815;SDS011;26535;48.788;9.214;2023-05-29T13:03:49;4.95;;;2.10;;
40815;SDS011;26535;48.788;9.214;2023-05-29T13:06:15;4.35;;;2.20;;
40815;SDS011;26535;48.788;9.214;2023-05-29T13:08:41;4.15;;;2.42;;
40815;SDS011;26535;48.788;9.214;2023-05-29T13:11:08;18.48;;;3.45;;
40815;SDS011;26535;48.788;9.214;2023-05-29T13:13:33;5.25;;;2.30;;
40815;SDS011;26535;48.788;9.214;2023-05-29T13:15:59;3.78;;;2.63;;
40815;SDS011;26535;48.788;9.214;2023-05-29T13:18:25;3.88;;;2.88;;
40815;SDS011;26535;48.788;9.214;2023-05-29T13:20:50;4.25;;;2.58;;
40815;SDS011;26535;48.788;9.214;2023-05-29T13:23:16;5.55;;;2.40;;
40815;SDS011;26535;48.788;9.214;2023-05-29T13:25:42;4.03;;;2.17;;
40815;SDS011;26535;48.788;9.214;2023-05-29T13:28:07;3.55;;;2.20;;
40815;SDS011;26535;48.788;9.214;2023-05-29T13:30:33;3.95;;;2.30;;
40815;SDS011;26535;48.788;9.214;2023-05-29T13:32:59;4.88;;;2.20;;
40815;SDS011;26535;48.788;9.214;2023-05-29T13:35:25;3.78;;;2.47;;
40815;SDS011;26535;48.788;9.214;2023-05-29T13:37:51;4.25;;;2.50;;
40815;SDS011;26535;48.788;9.214;2023-05-29T13:40:16;3.72;;;2.03;;
40815;SDS011;26535;48.788;9.214;2023-05-29T13:42:42;3.60;;;2.20;;
40815;SDS011;26535;48.788;9.214;2023-05-29T13:45:08;3.75;;;2.20;;
40815;SDS011;26535;48.788;9.214;2023-05-29T13:47:34;4.85;;;2.45;;
40815;SDS011;26535;48.788;9.214;2023-05-29T13:50:00;3.07;;;2.20;;
40815;SDS011;26535;48.788;9.214;2023-05-29T13:52:26;3.80;;;2.05;;
40815;SDS011;26535;48.788;9.214;2023-05-29T13:54:52;4.20;;;2.10;;
40815;SDS011;26535;48.788;9.214;2023-05-29T13:57:18;3.75;;;2.20;;
40815;SDS011;26535;48.788;9.214;2023-05-29T13:59:44;6.95;;;2.50;;
40815;SDS011;26535;48.788;9.214;2023-05-29T14:02:10;5.05;;;2.20;;
40815;SDS011;26535;48.788;9.214;2023-05-29T14:04:37;4.82;;;2.30;;
40815;SDS011;26535;48.788;9.214;2023-05-29T14:07:03;3.80;;;2.08;;
40815;SDS011;26535;48.788;9.214;2023-05-29T14:09:29;4.28;;;2.30;;
40815;SDS011;26535;48.788;9.214;2023-05-29T14:11:55;2.60;;;1.95;;
40815;SDS011;26535;48.788;9.214;2023-05-29T14:14:23;5.00;;;2.30;;
40815;SDS011;26535;48.788;9.214;2023-05-29T14:16:49;4.80;;;2.35;;
40815;SDS011;26535;48.788;9.214;2023-05-29T14:21:42;4.23;;;2.23;;
40815;SDS011;26535;48.788;9.214;2023-05-29T14:24:08;3.03;;;2.00;;
40815;SDS011;26535;48.788;9.214;2023-05-29T14:26:34;3.83;;;2.20;;
40815;SDS011;26535;48.788;9.214;2023-05-29T14:29:00;9.77;;;2.93;;
40815;SDS011;26535;48.788;9.214;2023-05-29T14:31:26;7.72;;;3.42;;
40815;SDS011;26535;48.788;9.214;2023-05-29T14:33:52;4.72;;;2.20;;
40815;SDS011;26535;48.788;9.214;2023-05-29T14:36:18;5.03;;;2.38;;
40815;SDS011;26535;48.788;9.214;2023-05-29T14:38:43;4.35;;;2.17;;
40815;SDS011;26535;48.788;9.214;2023-05-29T14:41:11;5.45;;;2.40;;
40815;SDS011;26535;48.788;9.214;2023-05-29T14:43:41;4.10;;;2.20;;
40815;SDS011;26535;48.788;9.214;2023-05-29T14:46:07;3.10;;;2.17;;
40815;SDS011;26535;48.788;9.214;2023-05-29T14:48:33;3.80;;;2.17;;
40815;SDS011;26535;48.788;9.214;2023-05-29T14:50:59;4.57;;;2.42;;
40815;SDS011;26535;48.788;9.214;2023-05-29T14:53:26;3.75;;;2.20;;
40815;SDS011;26535;48.788;9.214;2023-05-29T14:55:52;3.13;;;1.98;;
40815;SDS011;26535;48.788;9.214;2023-05-29T14:58:17;3.47;;;2.08;;
40815;SDS011;26535;48.788;9.214;2023-05-29T15:00:43;4.00;;;2.08;;
40815;SDS011;26535;48.788;9.214;2023-05-29T15:03:09;3.92;;;2.20;;
40815;SDS011;26535;48.788;9.214;2023-05-29T15:05:36;2.95;;;1.90;;
40815;SDS011;26535;48.788;9.214;2023-05-29T15:08:02;4.60;;;2.33;;
40815;SDS011;26535;48.788;9.214;2023-05-29T15:10:27;3.17;;;2.10;;
40815;SDS011;26535;48.788;9.214;2023-05-29T15:12:54;4.03;;;2.50;;
40815;SDS011;26535;48.788;9.214;2023-05-29T15:15:23;4.10;;;2.00;;
40815;SDS011;26535;48.788;9.214;2023-05-29T15:17:50;4.10;;;2.45;;
40815;SDS011;26535;48.788;9.214;2023-05-29T15:20:21;3.90;;;2.10;;
40815;SDS011;26535;48.788;9.214;2023-05-29T15:22:47;3.65;;;1.90;;
40815;SDS011;26535;48.788;9.214;2023-05-29T15:25:14;3.80;;;2.10;;
40815;SDS011;26535;48.788;9.214;2023-05-29T15:27:40;5.05;;;2.10;;
40815;SDS011;26535;48.788;9.214;2023-05-29T15:30:10;4.93;;;2.13;;
40815;SDS011;26535;48.788;9.214;2023-05-29T15:32:38;8.10;;;2.05;;
40815;SDS011;26535;48.788;9.214;2023-05-29T15:35:08;4.65;;;2.03;;
40815;SDS011;26535;48.788;9.214;2023-05-29T15:37:34;3.90;;;2.00;;
40815;SDS011;26535;48.788;9.214;2023-05-29T15:40:00;3.33;;;2.00;;
40815;SDS011;26535;48.788;9.214;2023-05-29T15:42:26;4.53;;;2.13;;
40815;SDS011;26535;48.788;9.214;2023-05-29T15:44:52;3.17;;;2.10;;
40815;SDS011;26535;48.788;9.214;2023-05-29T15:47:18;4.20;;;2.38;;
40815;SDS011;26535;48.788;9.214;2023-05-29T15:49:43;3.35;;;2.20;;
40815;SDS011;26535;48.788;9.214;2023-05-29T15:52:09;4.25;;;2.10;;
40815;SDS011;26535;48.788;9.214;2023-05-29T15:54:35;2.65;;;1.75;;
40815;SDS011;26535;48.788;9.214;2023-05-29T15:57:00;4.22;;;1.92;;
40815;SDS011;26535;48.788;9.214;2023-05-29T15:59:30;3.13;;;1.92;;
40815;SDS011;26535;48.788;9.214;2023-05-29T16:01:57;2.85;;;1.85;;
40815;SDS011;26535;48.788;9.214;2023-05-29T16:04:23;3.88;;;1.92;;
40815;SDS011;26535;48.788;9.214;2023-05-29T16:06:48;4.93;;;2.00;;
40815;SDS011;26535;48.788;9.214;2023-05-29T16:09:14;3.67;;;1.70;;
40815;SDS011;26535;48.788;9.214;2023-05-29T16:11:41;5.03;;;2.67;;
40815;SDS011;26535;48.788;9.214;2023-05-29T16:14:07;3.05;;;1.83;;
40815;SDS011;26535;48.788;9.214;2023-05-29T16:16:32;4.13;;;2.20;;
40815;SDS011;26535;48.788;9.214;2023-05-29T16:18:59;7.38;;;1.83;;
40815;SDS011;26535;48.788;9.214;2023-05-29T16:21:25;2.95;;;2.33;;
40815;SDS011;26535;48.788;9.214;2023-05-29T16:23:52;3.15;;;2.20;;
40815;SDS011;26535;48.788;9.214;2023-05-29T16:26:22;4.07;;;2.25;;
40815;SDS011;26535;48.788;9.214;2023-05-29T16:28:52;3.33;;;1.60;;
40815;SDS011;26535;48.788;9.214;2023-05-29T16:31:20;4.85;;;1.90;;
40815;SDS011;26535;48.788;9.214;2023-05-29T16:33:46;2.90;;;2.00;;
40815;SDS011;26535;48.788;9.214;2023-05-29T16:36:12;4.28;;;2.15;;
40815;SDS011;26535;48.788;9.214;2023-05-29T16:38:38;4.50;;;1.88;;
40815;SDS011;26535;48.788;9.214;2023-05-29T16:41:03;3.08;;;1.90;;
40815;SDS011;26535;48.788;9.214;2023-05-29T16:43:29;4.30;;;2.20;;
40815;SDS011;26535;48.788;9.214;2023-05-29T16:45:56;3.80;;;2.00;;
40815;SDS011;26535;48.788;9.214;2023-05-29T16:48:23;3.25;;;2.20;;
40815;SDS011;26535;48.788;9.214;2023-05-29T16:50:48;4.35;;;2.13;;
40815;SDS011;26535;48.788;9.214;2023-05-29T16:53:15;3.47;;;2.00;;
40815;SDS011;26535;48.788;9.214;2023-05-29T16:55:41;4.78;;;2.67;;
40815;SDS011;26535;48.788;9.214;2023-05-29T16:58:07;5.13;;;2.45;;
40815;SDS011;26535;48.788;9.214;2023-05-29T17:00:32;4.00;;;2.35;;
40815;SDS011;26535;48.788;9.214;2023-05-29T17:02:58;3.78;;;1.92;;
40815;SDS011;26535;48.788;9.214;2023-05-29T17:05:24;4.05;;;2.65;;
40815;SDS011;26535;48.788;9.214;2023-05-29T17:07:49;4.07;;;2.10;;
40815;SDS011;26535;48.788;9.214;2023-05-29T17:10:15;3.30;;;1.80;;
40815;SDS011;26535;48.788;9.214;2023-05-29T17:12:42;4.07;;;1.95;;
40815;SDS011;26535;48.788;9.214;2023-05-29T17:15:10;3.00;;;1.77;;
40815;SDS011;26535;48.788;9.214;2023-05-29T17:17:36;3.38;;;2.20;;
40815;SDS011;26535;48.788;9.214;2023-05-29T17:20:02;3.88;;;2.30;;
40815;SDS011;26535;48.788;9.214;2023-05-29T17:22:29;5.22;;;2.00;;
40815;SDS011;26535;48.788;9.214;2023-05-29T17:24:55;4.18;;;2.10;;
40815;SDS011;26535;48.788;9.214;2023-05-29T17:27:21;3.88;;;2.25;;
40815;SDS011;26535;48.788;9.214;2023-05-29T17:29:47;3.08;;;2.30;;
40815;SDS011;26535;48.788;9.214;2023-05-29T17:32:13;5.38;;;2.20;;
40815;SDS011;26535;48.788;9.214;2023-05-29T17:34:38;5.78;;;2.30;;
40815;SDS011;26535;48.788;9.214;2023-05-29T17:37:05;3.88;;;2.42;;
40815;SDS011;26535;48.788;9.214;2023-05-29T17:39:33;4.68;;;2.33;;
40815;SDS011;26535;48.788;9.214;2023-05-29T17:41:59;3.58;;;2.25;;
40815;SDS011;26535;48.788;9.214;2023-05-29T17:44:25;4.28;;;2.10;;
40815;SDS011;26535;48.788;9.214;2023-05-29T17:46:51;6.10;;;3.03;;
40815;SDS011;26535;48.788;9.214;2023-05-29T17:49:17;5.28;;;2.42;;
40815;SDS011;26535;48.788;9.214;2023-05-29T17:51:43;6.93;;;2.40;;
40815;SDS011;26535;48.788;9.214;2023-05-29T17:54:08;4.25;;;2.20;;
40815;SDS011;26535;48.788;9.214;2023-05-29T17:56:37;5.85;;;2.38;;
40815;SDS011;26535;48.788;9.214;2023-05-29T17:59:04;6.90;;;2.55;;
40815;SDS011;26535;48.788;9.214;2023-05-29T18:01:30;3.65;;;2.38;;
40815;SDS011;26535;48.788;9.214;2023-05-29T18:03:55;5.07;;;2.90;;
40815;SDS011;26535;48.788;9.214;2023-05-29T18:06:21;6.13;;;2.90;;
40815;SDS011;26535;48.788;9.214;2023-05-29T18:08:47;6.53;;;3.55;;
40815;SDS011;26535;48.788;9.214;2023-05-29T18:11:13;5.57;;;2.80;;
40815;SDS011;26535;48.788;9.214;2023-05-29T18:13:40;4.10;;;2.60;;
40815;SDS011;26535;48.788;9.214;2023-05-29T18:16:06;4.65;;;3.17;;
40815;SDS011;26535;48.788;9.214;2023-05-29T18:18:37;4.13;;;2.53;;
40815;SDS011;26535;48.788;9.214;2023-05-29T18:21:03;7.03;;;3.25;;
40815;SDS011;26535;48.788;9.214;2023-05-29T18:23:29;5.55;;;3.13;;
40815;SDS011;26535;48.788;9.214;2023-05-29T18:25:55;5.75;;;2.90;;
40815;SDS011;26535;48.788;9.214;2023-05-29T18:28:21;6.25;;;2.92;;
40815;SDS011;26535;48.788;9.214;2023-05-29T18:30:47;6.95;;;3.47;;
40815;SDS011;26535;48.788;9.214;2023-05-29T18:33:14;5.55;;;2.80;;
40815;SDS011;26535;48.788;9.214;2023-05-29T18:35:40;4.80;;;2.85;;
40815;SDS011;26535;48.788;9.214;2023-05-29T18:38:06;4.82;;;2.95;;
40815;SDS011;26535;48.788;9.214;2023-05-29T18:40:37;7.45;;;3.70;;
40815;SDS011;26535;48.788;9.214;2023-05-29T18:43:02;5.95;;;3.70;;
40815;SDS011;26535;48.788;9.214;2023-05-29T18:45:28;4.78;;;3.30;;
40815;SDS011;26535;48.788;9.214;2023-05-29T18:47:54;5.57;;;3.25;;
40815;SDS011;26535;48.788;9.214;2023-05-29T18:50:20;5.35;;;3.08;;
40815;SDS011;26535;48.788;9.214;2023-05-29T18:52:46;5.57;;;2.92;;
40815;SDS011;26535;48.788;9.214;2023-05-29T18:55:12;5.65;;;2.75;;
40815;SDS011;26535;48.788;9.214;2023-05-29T18:57:38;6.07;;;3.20;;
40815;SDS011;26535;48.788;9.214;2023-05-29T19:00:04;4.25;;;2.92;;
40815;SDS011;26535;48.788;9.214;2023-05-29T19:02:30;5.70;;;3.28;;
40815;SDS011;26535;48.788;9.214;2023-05-29T19:04:58;6.60;;;3.38;;
40815;SDS011;26535;48.788;9.214;2023-05-29T19:07:24;5.67;;;3.53;;
40815;SDS011;26535;48.788;9.214;2023-05-29T19:09:49;6.15;;;3.60;;
40815;SDS011;26535;48.788;9.214;2023-05-29T19:12:15;6.20;;;3.10;;
40815;SDS011;26535;48.788;9.214;2023-05-29T19:14:41;6.07;;;3.75;;
40815;SDS011;26535;48.788;9.214;2023-05-29T19:17:07;6.47;;;3.20;;
40815;SDS011;26535;48.788;9.214;2023-05-29T19:19:34;5.60;;;3.40;;
40815;SDS011;26535;48.788;9.214;2023-05-29T19:22:06;6.63;;;3.22;;
40815;SDS011;26535;48.788;9.214;2023-05-29T19:24:32;7.55;;;3.60;;
40815;SDS011;26535;48.788;9.214;2023-05-29T19:26:58;5.72;;;3.17;;
40815;SDS011;26535;48.788;9.214;2023-05-29T19:29:24;5.75;;;3.28;;
40815;SDS011;26535;48.788;9.214;2023-05-29T19:31:50;6.43;;;3.70;;
40815;SDS011;26535;48.788;9.214;2023-05-29T19:34:16;5.65;;;3.28;;
40815;SDS011;26535;48.788;9.214;2023-05-29T19:36:42;7.82;;;3.13;;
40815;SDS011;26535;48.788;9.214;2023-05-29T19:39:10;5.80;;;3.55;;
40815;SDS011;26535;48.788;9.214;2023-05-29T19:41:36;6.32;;;3.63;;
40815;SDS011;26535;48.788;9.214;2023-05-29T19:44:03;5.25;;;3.45;;
40815;SDS011;26535;48.788;9.214;2023-05-29T19:46:31;5.32;;;3.15;;
40815;SDS011;26535;48.788;9.214;2023-05-29T19:48:58;7.95;;;3.67;;
40815;SDS011;26535;48.788;9.214;2023-05-29T19:51:23;7.38;;;3.25;;
40815;SDS011;26535;48.788;9.214;2023-05-29T19:53:49;5.60;;;3.30;;
40815;SDS011;26535;48.788;9.214;2023-05-29T19:56:15;7.95;;;3.17;;
40815;SDS011;26535;48.788;9.214;2023-05-29T19:58:41;5.10;;;2.90;;
40815;SDS011;26535;48.788;9.214;2023-05-29T20:01:06;5.25;;;3.30;;
40815;SDS011;26535;48.788;9.214;2023-05-29T20:03:32;6.80;;;3.40;;
40815;SDS011;26535;48.788;9.214;2023-05-29T20:05:59;6.18;;;3.38;;
40815;SDS011;26535;48.788;9.214;2023-05-29T20:08:27;8.17;;;3.80;;
40815;SDS011;26535;48.788;9.214;2023-05-29T20:10:54;5.63;;;3.30;;
40815;SDS011;26535;48.788;9.214;2023-05-29T20:13:20;6.43;;;3.25;;
40815;SDS011;26535;48.788;9.214;2023-05-29T20:15:45;6.40;;;3.40;;
40815;SDS011;26535;48.788;9.214;2023-05-29T20:18:11;6.57;;;3.97;;